Time;durP1;ratioP1;P1;durP2;ratioP2;P2;SDS_P1;SDS_P2;PMS_P1;PMS_P2;Temp;Humidity;BMP_temperature;BMP_pressure;BME280_temperature;BME280_humidity;BME280_pressure;Samples;Min_cycle;Max_cycle;Signal;HPM_P1;HPM_P2
2023/08/21 00:00:03;;;;;;;9.38;8.23;;;;;;;;;;10004952;28;20054;-67
2023/08/21 00:04:56;;;;;;;9.98;8.80;;;;;;;;;;10021768;28;20050;-69
2023/08/21 00:09:48;;;;;;;10.75;9.27;;;;;;;;;;10022201;28;20093;-66
2023/08/21 00:14:39;;;;;;;10.73;9.73;;;;;;;;;;10001702;28;20041;-66
2023/08/21 00:19:32;;;;;;;9.82;8.82;;;;;;;;;;10008274;28;20082;-67
2023/08/21 00:24:24;;;;;;;10.48;9.48;;;;;;;;;;10008862;28;20048;-66
2023/08/21 00:29:16;;;;;;;9.85;8.77;;;;;;;;;;10003069;28;20044;-69
2023/08/21 00:34:08;;;;;;;11.48;10.38;;;;;;;;;;9968287;28;20061;-67
2023/08/21 00:38:59;;;;;;;9.73;8.82;;;;;;;;;;9995679;28;20141;-67
2023/08/21 00:43:51;;;;;;;10.77;8.85;;;;;;;;;;9976984;28;20137;-66
2023/08/21 00:48:44;;;;;;;10.63;9.50;;;;;;;;;;9994431;28;20736;-66
2023/08/21 00:53:36;;;;;;;9.82;8.93;;;;;;;;;;9988400;28;20038;-67
2023/08/21 00:58:28;;;;;;;10.60;9.60;;;;;;;;;;9996647;28;20078;-67
2023/08/21 01:03:20;;;;;;;10.98;9.98;;;;;;;;;;10032580;28;20102;-67
2023/08/21 01:08:23;;;;;;;10.10;9.20;;;;;;;;;;10021092;28;20045;-67
2023/08/21 01:13:30;;;;;;;10.18;9.20;;;;;;;;;;10022066;28;20088;-67
2023/08/21 01:18:23;;;;;;;9.98;9.07;;;;;;;;;;10020508;28;20072;-68
2023/08/21 01:23:33;;;;;;;9.75;8.95;;;;;;;;;;9999821;28;20042;-67
2023/08/21 01:28:25;;;;;;;10.75;9.75;;;;;;;;;;10015761;28;20057;-67
2023/08/21 01:33:18;;;;;;;10.88;9.70;;;;;;;;;;10001040;28;20051;-67
2023/08/21 01:38:10;;;;;;;11.00;9.80;;;;;;;;;;9941715;28;20069;-68
2023/08/21 01:43:02;;;;;;;11.93;10.32;;;;;;;;;;9992251;28;20169;-66
2023/08/21 01:47:54;;;;;;;10.45;9.45;;;;;;;;;;10018476;28;20137;-67
2023/08/21 01:52:46;;;;;;;13.82;9.65;;;;;;;;;;10022251;28;20049;-68
2023/08/21 01:57:38;;;;;;;11.48;10.15;;;;;;;;;;10013069;28;20146;-68
2023/08/21 02:02:29;;;;;;;11.27;10.15;;;;;;;;;;10000908;28;20484;-67
2023/08/21 02:07:22;;;;;;;11.40;10.40;;;;;;;;;;10013372;28;20043;-67
2023/08/21 02:12:13;;;;;;;11.43;10.23;;;;;;;;;;9983725;28;20042;-68
2023/08/21 02:17:05;;;;;;;13.00;10.55;;;;;;;;;;9985798;28;20042;-68
2023/08/21 02:21:57;;;;;;;11.95;10.30;;;;;;;;;;9982921;28;20050;-68
2023/08/21 02:26:49;;;;;;;11.52;10.52;;;;;;;;;;9996563;28;20055;-69
2023/08/21 02:31:41;;;;;;;11.40;10.30;;;;;;;;;;10010933;28;20045;-68
2023/08/21 02:36:33;;;;;;;11.88;10.00;;;;;;;;;;10004413;28;20495;-68
2023/08/21 02:41:25;;;;;;;10.98;9.93;;;;;;;;;;9997321;28;20038;-67
2023/08/21 02:46:17;;;;;;;11.43;10.25;;;;;;;;;;9982447;28;20431;-68
2023/08/21 02:51:09;;;;;;;17.02;9.27;;;;;;;;;;10005406;28;20076;-68
2023/08/21 02:56:01;;;;;;;13.75;10.55;;;;;;;;;;10000451;28;20105;-69
2023/08/21 03:00:53;;;;;;;9.15;8.25;;;;;;;;;;9942697;28;20051;-68
2023/08/21 03:05:45;;;;;;;10.57;9.50;;;;;;;;;;9943869;28;20377;-68
2023/08/21 03:10:37;;;;;;;9.52;8.63;;;;;;;;;;9945101;28;20163;-67
2023/08/21 03:15:29;;;;;;;12.00;9.98;;;;;;;;;;9933887;28;20479;-67
2023/08/21 03:20:21;;;;;;;10.98;9.90;;;;;;;;;;9942295;28;20047;-70
2023/08/21 03:25:13;;;;;;;10.15;9.30;;;;;;;;;;9924778;28;20473;-66
2023/08/21 03:30:08;;;;;;;10.02;9.13;;;;;;;;;;9937448;28;20053;-68
2023/08/21 03:35:02;;;;;;;12.02;10.15;;;;;;;;;;9958512;28;20078;-67
2023/08/21 03:39:54;;;;;;;10.98;9.82;;;;;;;;;;9971272;28;20085;-67
2023/08/21 03:44:48;;;;;;;13.05;10.48;;;;;;;;;;9968158;28;20038;-68
2023/08/21 03:49:40;;;;;;;11.10;9.85;;;;;;;;;;9934992;28;20430;-68
2023/08/21 03:54:32;;;;;;;11.85;10.85;;;;;;;;;;9970709;28;20055;-68
2023/08/21 03:59:27;;;;;;;10.85;9.85;;;;;;;;;;9964701;28;20077;-68
2023/08/21 04:04:19;;;;;;;11.27;10.38;;;;;;;;;;9987595;28;20385;-68
2023/08/21 04:09:11;;;;;;;11.32;10.32;;;;;;;;;;9987437;28;20049;-68
2023/08/21 04:14:02;;;;;;;18.67;11.85;;;;;;;;;;10002504;28;20042;-67
2023/08/21 04:18:54;;;;;;;11.18;10.00;;;;;;;;;;9985425;28;20441;-68
2023/08/21 04:23:46;;;;;;;10.82;9.68;;;;;;;;;;10017690;28;20065;-68
2023/08/21 04:28:38;;;;;;;11.75;10.75;;;;;;;;;;10017882;28;20041;-67
2023/08/21 04:33:31;;;;;;;11.45;10.43;;;;;;;;;;10012558;28;20540;-67
2023/08/21 04:38:23;;;;;;;9.55;8.65;;;;;;;;;;10015112;28;20054;-68
2023/08/21 04:43:15;;;;;;;11.23;10.23;;;;;;;;;;9990638;28;20553;-68
2023/08/21 04:48:07;;;;;;;12.10;10.93;;;;;;;;;;10005177;28;20106;-68
2023/08/21 04:53:00;;;;;;;11.20;9.82;;;;;;;;;;10019291;28;20042;-67
2023/08/21 04:57:52;;;;;;;11.48;10.43;;;;;;;;;;9984574;28;20069;-68
2023/08/21 05:02:47;;;;;;;11.13;10.02;;;;;;;;;;9970304;28;20042;-67
2023/08/21 05:07:39;;;;;;;16.48;12.10;;;;;;;;;;9946175;28;20250;-69
2023/08/21 05:12:31;;;;;;;13.02;11.73;;;;;;;;;;9945137;28;20047;-68
2023/08/21 05:17:25;;;;;;;12.68;11.55;;;;;;;;;;9961468;28;20042;-63
2023/08/21 05:22:17;;;;;;;11.80;10.80;;;;;;;;;;9962048;28;20069;-63
2023/08/21 05:27:09;;;;;;;11.70;10.48;;;;;;;;;;9946738;28;20042;-62
2023/08/21 05:32:01;;;;;;;15.82;10.45;;;;;;;;;;9944674;28;20106;-63
2023/08/21 05:36:54;;;;;;;11.02;10.00;;;;;;;;;;9943473;28;20134;-64
2023/08/21 05:41:46;;;;;;;13.18;9.45;;;;;;;;;;9992232;28;20125;-64
2023/08/21 05:46:38;;;;;;;14.40;10.45;;;;;;;;;;9983619;28;20052;-63
2023/08/21 05:51:31;;;;;;;12.70;11.50;;;;;;;;;;9936976;28;20047;-61
2023/08/21 05:56:23;;;;;;;11.10;9.95;;;;;;;;;;9928219;28;20401;-63
2023/08/21 06:01:16;;;;;;;10.73;9.82;;;;;;;;;;9972628;28;20093;-63
2023/08/21 06:06:08;;;;;;;15.45;10.85;;;;;;;;;;9981422;28;20141;-62
2023/08/21 06:11:00;;;;;;;11.50;9.68;;;;;;;;;;9964948;28;20437;-60
2023/08/21 06:15:53;;;;;;;11.30;10.18;;;;;;;;;;9982973;28;20046;-63
2023/08/21 06:20:46;;;;;;;9.77;8.98;;;;;;;;;;10007478;28;20468;-63
2023/08/21 06:25:39;;;;;;;11.00;9.90;;;;;;;;;;9982896;28;20046;-62
2023/08/21 06:30:31;;;;;;;12.63;11.43;;;;;;;;;;9966624;28;20050;-63
2023/08/21 06:35:22;;;;;;;11.65;10.27;;;;;;;;;;9965686;28;20042;-63
2023/08/21 06:40:16;;;;;;;12.95;10.85;;;;;;;;;;10004355;28;20056;-63
2023/08/21 06:45:08;;;;;;;12.77;11.52;;;;;;;;;;10024138;28;20095;-63
2023/08/21 06:50:00;;;;;;;12.05;11.05;;;;;;;;;;10001112;28;20041;-61
2023/08/21 06:54:52;;;;;;;21.70;11.57;;;;;;;;;;10022676;28;20141;-62
2023/08/21 06:59:44;;;;;;;15.65;10.27;;;;;;;;;;10020479;28;20046;-63
2023/08/21 07:04:36;;;;;;;13.13;10.73;;;;;;;;;;10021069;28;20049;-60
2023/08/21 07:09:28;;;;;;;11.30;10.40;;;;;;;;;;10026981;28;20042;-63
2023/08/21 07:14:20;;;;;;;12.85;11.02;;;;;;;;;;10032365;28;20101;-63
2023/08/21 07:19:12;;;;;;;12.35;10.15;;;;;;;;;;10032922;28;20056;-64
2023/08/21 07:24:04;;;;;;;10.50;9.57;;;;;;;;;;10031378;28;20042;-63
2023/08/21 07:28:56;;;;;;;10.20;9.30;;;;;;;;;;10032245;28;20054;-62
2023/08/21 07:33:48;;;;;;;10.63;9.60;;;;;;;;;;10018643;28;21306;-63
2023/08/21 07:38:40;;;;;;;10.73;9.73;;;;;;;;;;10030302;28;20068;-62
2023/08/21 07:43:32;;;;;;;44.42;10.48;;;;;;;;;;10030823;28;20034;-64
2023/08/21 07:48:23;;;;;;;10.77;9.15;;;;;;;;;;10031306;28;20436;-62
2023/08/21 07:53:15;;;;;;;10.00;8.95;;;;;;;;;;10030596;28;20136;-64
2023/08/21 07:58:07;;;;;;;10.75;9.50;;;;;;;;;;10017819;28;20050;-63
2023/08/21 08:02:59;;;;;;;13.32;9.35;;;;;;;;;;10030707;28;20173;-64
2023/08/21 08:07:51;;;;;;;8.88;7.97;;;;;;;;;;10029182;28;20077;-64
2023/08/21 08:12:44;;;;;;;10.20;9.20;;;;;;;;;;10025501;28;20042;-63
2023/08/21 08:17:35;;;;;;;10.65;9.55;;;;;;;;;;10041707;28;20869;-64
2023/08/21 08:22:27;;;;;;;11.18;10.05;;;;;;;;;;10028656;28;20133;-64
2023/08/21 08:27:19;;;;;;;11.40;9.43;;;;;;;;;;10029697;28;20078;-63
2023/08/21 08:32:11;;;;;;;10.02;8.98;;;;;;;;;;10030719;28;20049;-63
2023/08/21 08:37:03;;;;;;;10.82;9.73;;;;;;;;;;10029720;28;20540;-63
2023/08/21 08:41:59;;;;;;;13.02;9.15;;;;;;;;;;10028797;28;20388;-64
2023/08/21 08:46:51;;;;;;;10.18;9.30;;;;;;;;;;9986790;28;20043;-63
2023/08/21 08:51:44;;;;;;;10.23;8.70;;;;;;;;;;9986177;28;20137;-63
2023/08/21 08:56:36;;;;;;;11.05;9.98;;;;;;;;;;9999737;28;20149;-63
2023/08/21 09:01:28;;;;;;;11.82;9.27;;;;;;;;;;9991693;28;20089;-61
2023/08/21 09:06:20;;;;;;;13.45;10.13;;;;;;;;;;10025287;28;20093;-65
2023/08/21 09:11:16;;;;;;;9.80;8.93;;;;;;;;;;10011731;28;20452;-63
2023/08/21 09:16:09;;;;;;;14.50;11.02;;;;;;;;;;10026647;28;20121;-64
2023/08/21 09:21:02;;;;;;;16.35;8.98;;;;;;;;;;10017021;28;20623;-65
2023/08/21 09:25:54;;;;;;;10.68;7.85;;;;;;;;;;10013604;28;20141;-63
2023/08/21 09:30:51;;;;;;;11.20;8.85;;;;;;;;;;10015526;28;20092;-63
2023/08/21 09:35:44;;;;;;;9.55;8.52;;;;;;;;;;10024011;28;20100;-63
2023/08/21 09:40:42;;;;;;;15.60;8.65;;;;;;;;;;10039864;28;20065;-63
2023/08/21 09:45:34;;;;;;;10.15;9.15;;;;;;;;;;10061854;28;20049;-63
2023/08/21 09:50:28;;;;;;;13.77;9.32;;;;;;;;;;10061427;28;20119;-63
2023/08/21 09:55:21;;;;;;;12.60;9.75;;;;;;;;;;10069623;28;20041;-65
2023/08/21 10:00:19;;;;;;;10.93;9.82;;;;;;;;;;10061719;28;20403;-61
2023/08/21 10:05:14;;;;;;;10.27;9.35;;;;;;;;;;10058863;28;20096;-62
2023/08/21 10:10:06;;;;;;;10.30;9.30;;;;;;;;;;10057225;28;20045;-63
2023/08/21 10:14:58;;;;;;;16.17;9.57;;;;;;;;;;10056713;28;20830;-63
2023/08/21 10:19:53;;;;;;;10.25;9.30;;;;;;;;;;10057721;28;20508;-62
2023/08/21 10:24:46;;;;;;;15.10;9.35;;;;;;;;;;10064442;28;20371;-63
2023/08/21 10:29:38;;;;;;;10.88;8.45;;;;;;;;;;10063542;28;20388;-64
2023/08/21 10:34:35;;;;;;;10.48;8.20;;;;;;;;;;10037696;28;20050;-64
2023/08/21 10:39:31;;;;;;;10.30;9.40;;;;;;;;;;10031494;28;20049;-64
2023/08/21 10:45:09;;;;;;;10.63;8.10;;;;;;;;;;10060901;28;20366;-64
2023/08/21 10:50:05;;;;;;;10.73;9.82;;;;;;;;;;10071307;28;20133;-64
2023/08/21 10:54:59;;;;;;;10.25;9.30;;;;;;;;;;10059676;28;20435;-63
2023/08/21 10:59:51;;;;;;;13.65;8.50;;;;;;;;;;10072255;28;20140;-64
2023/08/21 11:04:44;;;;;;;10.90;9.77;;;;;;;;;;10071398;28;20045;-63
2023/08/21 11:09:36;;;;;;;12.05;9.13;;;;;;;;;;10072010;28;20049;-64
2023/08/21 11:14:28;;;;;;;11.30;8.60;;;;;;;;;;10072193;28;20091;-64
2023/08/21 11:19:20;;;;;;;11.90;9.43;;;;;;;;;;10072145;28;20476;-64
2023/08/21 11:24:12;;;;;;;10.48;9.27;;;;;;;;;;10071857;28;20049;-64
2023/08/21 11:29:04;;;;;;;9.63;8.82;;;;;;;;;;10059039;28;20073;-63
2023/08/21 11:33:56;;;;;;;11.27;10.18;;;;;;;;;;10071286;28;20061;-64
2023/08/21 11:39:01;;;;;;;9.77;8.48;;;;;;;;;;10058014;28;20053;-61
2023/08/21 11:43:53;;;;;;;13.70;9.00;;;;;;;;;;10067475;28;20042;-62
2023/08/21 11:48:45;;;;;;;12.18;8.88;;;;;;;;;;10078318;28;20049;-63
2023/08/21 11:53:39;;;;;;;14.50;10.40;;;;;;;;;;10067051;28;21002;-63
2023/08/21 11:58:31;;;;;;;8.98;8.25;;;;;;;;;;10055568;28;20125;-63
2023/08/21 12:03:23;;;;;;;9.73;8.93;;;;;;;;;;10026435;28;20046;-64
2023/08/21 12:08:16;;;;;;;12.38;8.63;;;;;;;;;;10000470;28;20136;-63
2023/08/21 12:13:08;;;;;;;10.30;9.20;;;;;;;;;;10010572;28;20093;-63
2023/08/21 12:18:00;;;;;;;9.40;8.60;;;;;;;;;;9989967;28;20050;-63
2023/08/21 12:22:51;;;;;;;8.98;8.18;;;;;;;;;;9983508;28;20442;-64
2023/08/21 12:27:43;;;;;;;14.55;12.93;;;;;;;;;;9990465;28;20042;-62
2023/08/21 12:32:40;;;;;;;15.90;10.98;;;;;;;;;;9991551;28;20050;-64
2023/08/21 12:37:32;;;;;;;9.95;8.88;;;;;;;;;;9995252;28;20109;-64
2023/08/21 12:42:24;;;;;;;14.35;10.80;;;;;;;;;;10029603;28;20045;-62
2023/08/21 12:47:16;;;;;;;9.95;9.15;;;;;;;;;;10003781;28;20138;-63
2023/08/21 12:52:08;;;;;;;10.25;9.35;;;;;;;;;;10013420;28;20463;-63
2023/08/21 12:57:01;;;;;;;15.88;9.32;;;;;;;;;;10026284;28;20519;-64
2023/08/21 13:01:53;;;;;;;11.60;10.60;;;;;;;;;;10052488;28;20049;-64
2023/08/21 13:06:45;;;;;;;9.80;8.90;;;;;;;;;;10055683;28;20042;-64
2023/08/21 13:11:37;;;;;;;10.70;9.70;;;;;;;;;;10068048;28;20055;-63
2023/08/21 13:16:29;;;;;;;10.40;9.50;;;;;;;;;;10067699;28;20502;-63
2023/08/21 13:21:21;;;;;;;9.50;8.70;;;;;;;;;;10067769;28;20048;-64
2023/08/21 13:26:13;;;;;;;9.00;8.30;;;;;;;;;;10066501;28;20037;-63
2023/08/21 13:31:06;;;;;;;8.90;8.00;;;;;;;;;;10067393;28;20133;-63
2023/08/21 13:35:58;;;;;;;10.07;8.77;;;;;;;;;;10066307;28;20100;-65
2023/08/21 13:40:50;;;;;;;9.10;8.05;;;;;;;;;;10065636;28;20082;-65
2023/08/21 13:45:42;;;;;;;11.07;9.98;;;;;;;;;;10066755;28;20080;-64
2023/08/21 13:50:35;;;;;;;9.20;8.23;;;;;;;;;;10066072;28;20056;-63
2023/08/21 13:55:26;;;;;;;12.80;8.63;;;;;;;;;;10065132;28;20037;-63
2023/08/21 14:00:18;;;;;;;9.40;8.45;;;;;;;;;;10066093;28;20096;-63
2023/08/21 14:05:11;;;;;;;11.98;7.65;;;;;;;;;;10066173;28;20041;-63
2023/08/21 14:10:07;;;;;;;9.77;7.00;;;;;;;;;;10064945;28;20475;-64
2023/08/21 14:15:00;;;;;;;8.83;8.03;;;;;;;;;;10066052;28;20578;-64
2023/08/21 14:19:52;;;;;;;11.35;8.50;;;;;;;;;;10063637;28;20037;-63
2023/08/21 14:24:43;;;;;;;11.15;7.38;;;;;;;;;;10065192;28;20041;-63
2023/08/21 14:29:35;;;;;;;9.80;7.93;;;;;;;;;;10065678;28;20046;-62
2023/08/21 14:34:27;;;;;;;13.18;7.28;;;;;;;;;;10064843;28;20045;-64
2023/08/21 14:39:20;;;;;;;11.50;7.20;;;;;;;;;;10064550;28;20119;-64
2023/08/21 14:44:11;;;;;;;9.30;8.40;;;;;;;;;;10064964;28;20045;-64
2023/08/21 14:49:03;;;;;;;11.18;8.50;;;;;;;;;;10064027;28;20101;-63
2023/08/21 14:53:55;;;;;;;8.50;7.65;;;;;;;;;;10064510;28;20085;-64
2023/08/21 14:58:47;;;;;;;9.15;8.27;;;;;;;;;;10063152;28;20120;-63
2023/08/21 15:03:39;;;;;;;8.57;6.90;;;;;;;;;;10050351;28;20049;-64
2023/08/21 15:08:31;;;;;;;8.55;6.82;;;;;;;;;;10060378;28;20052;-61
2023/08/21 15:13:23;;;;;;;9.50;7.50;;;;;;;;;;10061133;28;20435;-63
2023/08/21 15:18:15;;;;;;;9.07;6.82;;;;;;;;;;10060951;28;20050;-61
2023/08/21 15:23:07;;;;;;;7.30;5.68;;;;;;;;;;10057126;28;20041;-63
2023/08/21 15:27:58;;;;;;;6.32;5.72;;;;;;;;;;10059384;28;20049;-62
2023/08/21 15:32:50;;;;;;;8.73;6.10;;;;;;;;;;10067534;28;20522;-63
2023/08/21 15:37:44;;;;;;;6.97;6.28;;;;;;;;;;10068377;28;20760;-63
2023/08/21 15:42:37;;;;;;;6.78;6.10;;;;;;;;;;10060673;28;20072;-73
2023/08/21 15:47:29;;;;;;;17.08;7.03;;;;;;;;;;10065244;28;20095;-70
2023/08/21 15:52:38;;;;;;;7.85;5.70;;;;;;;;;;10060817;28;20057;-71
2023/08/21 15:57:31;;;;;;;11.23;5.38;;;;;;;;;;10065973;28;20045;-70
2023/08/21 16:02:23;;;;;;;6.95;5.05;;;;;;;;;;10069045;28;20050;-69
2023/08/21 16:07:16;;;;;;;7.40;5.28;;;;;;;;;;10028043;28;20133;-71
2023/08/21 16:12:08;;;;;;;5.70;5.20;;;;;;;;;;10022486;28;20539;-75
2023/08/21 16:17:00;;;;;;;8.70;5.43;;;;;;;;;;10023024;28;20073;-75
2023/08/21 16:21:51;;;;;;;6.55;5.10;;;;;;;;;;10001152;28;20053;-74
2023/08/21 16:26:44;;;;;;;6.68;5.05;;;;;;;;;;10021234;28;20057;-73
2023/08/21 16:31:37;;;;;;;9.45;5.20;;;;;;;;;;10015344;28;20053;-74
2023/08/21 16:36:29;;;;;;;7.63;5.75;;;;;;;;;;10019396;28;20108;-73
2023/08/21 16:41:21;;;;;;;5.25;4.85;;;;;;;;;;10016826;28;20720;-75
2023/08/21 16:46:13;;;;;;;8.35;5.57;;;;;;;;;;9997023;28;20049;-78
2023/08/21 16:51:04;;;;;;;6.25;5.22;;;;;;;;;;10019714;28;20112;-78
2023/08/21 16:55:57;;;;;;;5.30;4.80;;;;;;;;;;10019650;28;20608;-77
2023/08/21 17:00:53;;;;;;;7.53;5.40;;;;;;;;;;10026707;28;20060;-78
2023/08/21 17:05:45;;;;;;;7.38;5.22;;;;;;;;;;10057675;28;20093;-77
2023/08/21 17:10:37;;;;;;;7.57;4.70;;;;;;;;;;10057756;28;20048;-77
2023/08/21 17:15:31;;;;;;;9.43;6.10;;;;;;;;;;10053516;28;20038;-76
2023/08/21 17:20:25;;;;;;;8.48;5.70;;;;;;;;;;10056028;28;20091;-76
2023/08/21 17:25:17;;;;;;;8.20;6.00;;;;;;;;;;10060634;28;20447;-77
2023/08/21 17:30:10;;;;;;;8.77;5.57;;;;;;;;;;10062839;28;20480;-77
2023/08/21 17:35:02;;;;;;;12.35;6.22;;;;;;;;;;10060375;28;20084;-78
2023/08/21 17:39:54;;;;;;;9.85;5.88;;;;;;;;;;10059490;28;20041;-77
2023/08/21 17:44:46;;;;;;;12.80;6.68;;;;;;;;;;10062556;28;20388;-76
2023/08/21 17:49:38;;;;;;;12.82;6.88;;;;;;;;;;10046417;28;20038;-76
2023/08/21 17:54:30;;;;;;;13.93;6.65;;;;;;;;;;10054675;28;20075;-78
2023/08/21 17:59:22;;;;;;;9.18;6.15;;;;;;;;;;10057135;28;20049;-74
2023/08/21 18:04:13;;;;;;;9.27;5.88;;;;;;;;;;10059498;28;20128;-77
2023/08/21 18:09:07;;;;;;;8.10;5.93;;;;;;;;;;10058716;28;20128;-76
2023/08/21 18:13:59;;;;;;;6.93;5.85;;;;;;;;;;10051443;28;20372;-76
2023/08/21 18:18:50;;;;;;;9.10;6.22;;;;;;;;;;10041022;28;20045;-75
2023/08/21 18:23:42;;;;;;;9.80;7.90;;;;;;;;;;10049440;28;20077;-74
2023/08/21 18:28:34;;;;;;;7.57;6.97;;;;;;;;;;10045651;28;20056;-75
2023/08/21 18:33:27;;;;;;;11.63;6.85;;;;;;;;;;10058951;28;20095;-75
2023/08/21 18:38:22;;;;;;;10.82;7.22;;;;;;;;;;10044938;28;20333;-76
2023/08/21 18:43:14;;;;;;;10.27;7.38;;;;;;;;;;10041562;28;20046;-75
2023/08/21 18:48:06;;;;;;;9.45;5.88;;;;;;;;;;10054570;28;20045;-74
2023/08/21 18:52:58;;;;;;;11.88;7.28;;;;;;;;;;10056147;28;20052;-74
2023/08/21 18:57:50;;;;;;;52.50;9.70;;;;;;;;;;10047633;28;20108;-73
2023/08/21 19:02:42;;;;;;;9.48;7.20;;;;;;;;;;10055753;28;20042;-72
2023/08/21 19:07:38;;;;;;;8.82;6.93;;;;;;;;;;10060048;28;20073;-70
2023/08/21 19:12:31;;;;;;;8.15;7.35;;;;;;;;;;10062498;28;20048;-73
2023/08/21 19:17:24;;;;;;;9.40;7.72;;;;;;;;;;10066098;28;20048;-74
2023/08/21 19:22:16;;;;;;;8.00;7.20;;;;;;;;;;10064800;28;20037;-72
2023/08/21 19:27:10;;;;;;;8.70;7.90;;;;;;;;;;10062198;28;20045;-72
2023/08/21 19:32:02;;;;;;;8.98;6.80;;;;;;;;;;10063961;28;20394;-73
2023/08/21 19:36:54;;;;;;;8.57;6.45;;;;;;;;;;10068305;28;20424;-75
2023/08/21 19:41:46;;;;;;;8.18;6.68;;;;;;;;;;10060977;28;20151;-74
2023/08/21 19:46:38;;;;;;;7.82;7.13;;;;;;;;;;10058958;28;20041;-73
2023/08/21 19:51:30;;;;;;;7.65;6.90;;;;;;;;;;10062289;28;20573;-73
2023/08/21 19:56:22;;;;;;;9.35;7.85;;;;;;;;;;10044737;28;20148;-73
2023/08/21 20:01:14;;;;;;;7.50;6.78;;;;;;;;;;10066447;28;20463;-74
2023/08/21 20:06:07;;;;;;;7.88;6.28;;;;;;;;;;10062241;28;20512;-73
2023/08/21 20:11:02;;;;;;;7.38;5.97;;;;;;;;;;10045638;28;20435;-73
2023/08/21 20:15:56;;;;;;;6.57;5.97;;;;;;;;;;10053629;28;20057;-74
2023/08/21 20:20:49;;;;;;;7.07;6.40;;;;;;;;;;10062959;28;20041;-75
2023/08/21 20:25:45;;;;;;;9.45;6.05;;;;;;;;;;10062590;28;20364;-75
2023/08/21 20:30:38;;;;;;;10.77;6.63;;;;;;;;;;10065055;28;20048;-79
2023/08/21 20:35:30;;;;;;;8.55;7.07;;;;;;;;;;10063111;28;20565;-75
2023/08/21 20:40:22;;;;;;;7.38;6.13;;;;;;;;;;10062936;28;20045;-79
2023/08/21 20:45:15;;;;;;;7.65;6.40;;;;;;;;;;10052778;28;20041;-79
2023/08/21 20:50:10;;;;;;;6.43;5.82;;;;;;;;;;10052493;28;20068;-78
2023/08/21 20:55:02;;;;;;;7.95;6.88;;;;;;;;;;10037591;28;20065;-81
2023/08/21 20:59:54;;;;;;;9.85;6.28;;;;;;;;;;10056483;28;20064;-76
2023/08/21 21:04:46;;;;;;;9.48;7.55;;;;;;;;;;10066274;28;20365;-75
2023/08/21 21:09:38;;;;;;;7.40;6.68;;;;;;;;;;10066605;28;20472;-78
2023/08/21 21:14:31;;;;;;;7.13;6.45;;;;;;;;;;10046404;28;20093;-77
2023/08/21 21:19:23;;;;;;;10.18;6.68;;;;;;;;;;10040158;28;20041;-78
2023/08/21 21:24:16;;;;;;;7.00;6.30;;;;;;;;;;10059020;28;20064;-78
2023/08/21 21:29:11;;;;;;;10.52;8.07;;;;;;;;;;10057400;28;20052;-78
2023/08/21 21:34:03;;;;;;;7.57;6.82;;;;;;;;;;10058045;28;20115;-79
2023/08/21 21:38:55;;;;;;;7.63;6.93;;;;;;;;;;10048686;28;20049;-78
2023/08/21 21:43:48;;;;;;;10.20;6.75;;;;;;;;;;10056386;28;20527;-76
2023/08/21 21:48:40;;;;;;;10.82;6.80;;;;;;;;;;10057336;28;20041;-75
2023/08/21 21:53:32;;;;;;;8.05;7.00;;;;;;;;;;10051798;28;20068;-72
2023/08/21 21:58:25;;;;;;;14.90;8.90;;;;;;;;;;10044555;28;20100;-70
2023/08/21 22:03:17;;;;;;;9.30;7.40;;;;;;;;;;10064353;28;20057;-76
2023/08/21 22:08:10;;;;;;;9.70;7.82;;;;;;;;;;10063462;28;20490;-76
2023/08/21 22:13:03;;;;;;;10.63;7.55;;;;;;;;;;10063143;28;20064;-77
2023/08/21 22:17:54;;;;;;;12.52;6.90;;;;;;;;;;10046000;28;20447;-75
2023/08/21 22:22:47;;;;;;;10.80;7.40;;;;;;;;;;10061598;28;20053;-77
2023/08/21 22:27:39;;;;;;;8.13;7.38;;;;;;;;;;10060928;28;20041;-74
2023/08/21 22:32:31;;;;;;;8.40;7.60;;;;;;;;;;10059768;28;20037;-76
2023/08/21 22:37:23;;;;;;;10.55;7.55;;;;;;;;;;10058621;28;20390;-78
2023/08/21 22:42:16;;;;;;;9.05;8.15;;;;;;;;;;10065770;28;20068;-78
2023/08/21 22:47:10;;;;;;;7.72;6.93;;;;;;;;;;10060700;28;20049;-77
2023/08/21 22:52:02;;;;;;;10.60;8.40;;;;;;;;;;10058713;28;20050;-78
2023/08/21 22:56:53;;;;;;;10.25;9.25;;;;;;;;;;10059171;28;20049;-76
2023/08/21 23:01:46;;;;;;;10.63;7.55;;;;;;;;;;10061277;28;20056;-77
2023/08/21 23:06:39;;;;;;;8.63;7.60;;;;;;;;;;10061597;28;20037;-78
2023/08/21 23:11:31;;;;;;;10.98;7.80;;;;;;;;;;10058293;28;20048;-76
2023/08/21 23:16:23;;;;;;;8.40;7.60;;;;;;;;;;10053433;28;20060;-77
2023/08/21 23:21:16;;;;;;;9.35;8.00;;;;;;;;;;10059274;28;20125;-77
2023/08/21 23:26:07;;;;;;;11.77;7.85;;;;;;;;;;10058945;28;20056;-76
2023/08/21 23:31:00;;;;;;;8.52;7.28;;;;;;;;;;10058308;28;20053;-77
2023/08/21 23:35:52;;;;;;;9.32;7.65;;;;;;;;;;10057855;28;20060;-76
2023/08/21 23:40:44;;;;;;;8.13;7.40;;;;;;;;;;10057449;28;20088;-77
2023/08/21 23:45:36;;;;;;;8.60;7.65;;;;;;;;;;10056316;28;20041;-77
2023/08/21 23:50:31;;;;;;;8.60;7.72;;;;;;;;;;10062337;28;20041;-77
2023/08/21 23:55:23;;;;;;;10.88;8.27;;;;;;;;;;10061669;28;20077;-76
